Romayor, Texas
Current Conditions -  °F | °C
As of 11:15 PM on Friday 28 Nov 2014 (Local Time) from K6R3 Reporting Station
Haze Haze  
Wind Chill: 55°   Ceiling: Unl
Heat Index: 55°   Visibility: 5mi
Dew Point: 55°   Wind: 5mph
Humidity: 99%   Direction: 170°S
Pressure: 30.14"   Gusts: NA
Location:  30.45°N, 94.84°W
Report Text: K6R3 290515Z AUTO 17004KT 5SM BR SCT025 13/13 A3014 RMK AO2 T01300129
Loading
Personal Weather Stations






























Interactive Weather Map New forecast layout! Learn more

10-Day Weather Forecast

Advertisements
Track Severe Weather on mobile